sensor_id;sensor_type;location;lat;lon;timestamp;P1;durP1;ratioP1;P2;durP2;ratioP2
73452;SDS011;61687;56.232;43.854;2022-11-20T00:01:05;13.68;;;6.72;;
73452;SDS011;61687;56.232;43.854;2022-11-20T00:03:41;15.37;;;6.13;;
73452;SDS011;61687;56.232;43.854;2022-11-20T00:06:09;14.82;;;6.55;;
73452;SDS011;61687;56.232;43.854;2022-11-20T00:08:36;14.07;;;6.47;;
73452;SDS011;61687;56.232;43.854;2022-11-20T00:11:04;12.43;;;5.78;;
73452;SDS011;61687;56.232;43.854;2022-11-20T00:13:31;13.73;;;6.60;;
73452;SDS011;61687;56.232;43.854;2022-11-20T00:15:58;11.37;;;6.07;;
73452;SDS011;61687;56.232;43.854;2022-11-20T00:18:25;11.93;;;5.93;;
73452;SDS011;61687;56.232;43.854;2022-11-20T00:20:51;13.75;;;6.95;;
73452;SDS011;61687;56.232;43.854;2022-11-20T00:23:17;11.38;;;6.65;;
73452;SDS011;61687;56.232;43.854;2022-11-20T00:25:43;14.70;;;6.60;;
73452;SDS011;61687;56.232;43.854;2022-11-20T00:28:09;12.38;;;6.00;;
73452;SDS011;61687;56.232;43.854;2022-11-20T00:30:35;10.73;;;6.43;;
73452;SDS011;61687;56.232;43.854;2022-11-20T00:33:01;11.07;;;6.40;;
73452;SDS011;61687;56.232;43.854;2022-11-20T00:35:27;12.47;;;6.10;;
73452;SDS011;61687;56.232;43.854;2022-11-20T00:37:53;12.77;;;5.93;;
73452;SDS011;61687;56.232;43.854;2022-11-20T00:40:19;12.32;;;7.18;;
73452;SDS011;61687;56.232;43.854;2022-11-20T00:42:45;13.20;;;6.37;;
73452;SDS011;61687;56.232;43.854;2022-11-20T00:45:11;12.70;;;6.55;;
73452;SDS011;61687;56.232;43.854;2022-11-20T00:47:37;14.90;;;6.30;;
73452;SDS011;61687;56.232;43.854;2022-11-20T00:50:03;14.05;;;6.63;;
73452;SDS011;61687;56.232;43.854;2022-11-20T00:52:29;14.18;;;6.90;;
73452;SDS011;61687;56.232;43.854;2022-11-20T00:54:55;12.23;;;5.70;;
73452;SDS011;61687;56.232;43.854;2022-11-20T00:57:21;10.27;;;5.75;;
73452;SDS011;61687;56.232;43.854;2022-11-20T00:59:46;12.03;;;7.47;;
73452;SDS011;61687;56.232;43.854;2022-11-20T01:02:12;11.25;;;6.35;;
73452;SDS011;61687;56.232;43.854;2022-11-20T01:04:40;9.18;;;5.57;;
73452;SDS011;61687;56.232;43.854;2022-11-20T01:07:06;11.23;;;6.13;;
73452;SDS011;61687;56.232;43.854;2022-11-20T01:09:32;18.00;;;7.15;;
73452;SDS011;61687;56.232;43.854;2022-11-20T01:11:58;11.43;;;6.38;;
73452;SDS011;61687;56.232;43.854;2022-11-20T01:14:24;14.60;;;7.30;;
73452;SDS011;61687;56.232;43.854;2022-11-20T01:16:50;16.10;;;6.88;;
73452;SDS011;61687;56.232;43.854;2022-11-20T01:19:18;14.45;;;6.75;;
73452;SDS011;61687;56.232;43.854;2022-11-20T01:21:47;16.35;;;6.97;;
73452;SDS011;61687;56.232;43.854;2022-11-20T01:24:16;13.20;;;6.93;;
73452;SDS011;61687;56.232;43.854;2022-11-20T01:26:43;14.10;;;6.85;;
73452;SDS011;61687;56.232;43.854;2022-11-20T01:29:12;12.52;;;6.75;;
73452;SDS011;61687;56.232;43.854;2022-11-20T01:31:40;12.13;;;6.13;;
73452;SDS011;61687;56.232;43.854;2022-11-20T01:34:09;15.38;;;7.05;;
73452;SDS011;61687;56.232;43.854;2022-11-20T01:36:37;14.47;;;6.63;;
73452;SDS011;61687;56.232;43.854;2022-11-20T01:39:05;15.18;;;6.32;;
73452;SDS011;61687;56.232;43.854;2022-11-20T01:41:33;14.48;;;6.40;;
73452;SDS011;61687;56.232;43.854;2022-11-20T01:44:19;12.40;;;7.15;;
73452;SDS011;61687;56.232;43.854;2022-11-20T01:47:04;11.20;;;5.72;;
73452;SDS011;61687;56.232;43.854;2022-11-20T01:49:42;13.30;;;6.00;;
73452;SDS011;61687;56.232;43.854;2022-11-20T01:52:25;16.75;;;7.38;;
73452;SDS011;61687;56.232;43.854;2022-11-20T01:54:57;17.83;;;7.45;;
73452;SDS011;61687;56.232;43.854;2022-11-20T01:57:26;12.60;;;6.63;;
73452;SDS011;61687;56.232;43.854;2022-11-20T02:00:00;13.48;;;6.78;;
73452;SDS011;61687;56.232;43.854;2022-11-20T02:02:39;13.03;;;6.83;;
73452;SDS011;61687;56.232;43.854;2022-11-20T02:06:11;15.40;;;6.93;;
73452;SDS011;61687;56.232;43.854;2022-11-20T02:08:12;16.80;;;7.30;;
73452;SDS011;61687;56.232;43.854;2022-11-20T02:10:38;13.32;;;6.90;;
73452;SDS011;61687;56.232;43.854;2022-11-20T02:13:04;16.05;;;7.45;;
73452;SDS011;61687;56.232;43.854;2022-11-20T02:15:49;14.20;;;6.83;;
73452;SDS011;61687;56.232;43.854;2022-11-20T02:18:16;13.60;;;6.47;;
73452;SDS011;61687;56.232;43.854;2022-11-20T02:20:44;13.65;;;7.32;;
73452;SDS011;61687;56.232;43.854;2022-11-20T02:23:13;14.52;;;7.43;;
73452;SDS011;61687;56.232;43.854;2022-11-20T02:25:40;13.98;;;7.05;;
73452;SDS011;61687;56.232;43.854;2022-11-20T02:28:08;11.23;;;5.80;;
73452;SDS011;61687;56.232;43.854;2022-11-20T02:30:35;15.60;;;6.80;;
73452;SDS011;61687;56.232;43.854;2022-11-20T02:33:00;13.93;;;6.68;;
73452;SDS011;61687;56.232;43.854;2022-11-20T02:37:54;17.63;;;7.10;;
73452;SDS011;61687;56.232;43.854;2022-11-20T02:40:21;22.02;;;8.00;;
73452;SDS011;61687;56.232;43.854;2022-11-20T02:42:51;16.02;;;6.18;;
73452;SDS011;61687;56.232;43.854;2022-11-20T02:45:17;14.15;;;6.80;;
73452;SDS011;61687;56.232;43.854;2022-11-20T02:47:43;16.80;;;7.30;;
73452;SDS011;61687;56.232;43.854;2022-11-20T02:50:09;13.70;;;6.75;;
73452;SDS011;61687;56.232;43.854;2022-11-20T02:52:35;15.52;;;7.80;;
73452;SDS011;61687;56.232;43.854;2022-11-20T02:55:01;14.02;;;7.13;;
73452;SDS011;61687;56.232;43.854;2022-11-20T02:57:29;16.47;;;6.50;;
73452;SDS011;61687;56.232;43.854;2022-11-20T02:59:55;15.05;;;6.70;;
73452;SDS011;61687;56.232;43.854;2022-11-20T03:02:21;12.80;;;6.30;;
73452;SDS011;61687;56.232;43.854;2022-11-20T03:04:47;15.93;;;6.60;;
73452;SDS011;61687;56.232;43.854;2022-11-20T03:07:13;15.33;;;7.27;;
73452;SDS011;61687;56.232;43.854;2022-11-20T03:09:38;19.48;;;7.10;;
73452;SDS011;61687;56.232;43.854;2022-11-20T03:12:05;16.58;;;7.68;;
73452;SDS011;61687;56.232;43.854;2022-11-20T03:14:31;26.05;;;10.65;;
73452;SDS011;61687;56.232;43.854;2022-11-20T03:16:57;30.37;;;11.33;;
73452;SDS011;61687;56.232;43.854;2022-11-20T03:19:23;25.08;;;10.70;;
73452;SDS011;61687;56.232;43.854;2022-11-20T03:21:49;22.67;;;10.60;;
73452;SDS011;61687;56.232;43.854;2022-11-20T03:24:15;26.02;;;10.68;;
73452;SDS011;61687;56.232;43.854;2022-11-20T03:26:41;23.88;;;9.75;;
73452;SDS011;61687;56.232;43.854;2022-11-20T03:29:07;25.40;;;10.30;;
73452;SDS011;61687;56.232;43.854;2022-11-20T03:31:34;24.55;;;11.30;;
73452;SDS011;61687;56.232;43.854;2022-11-20T03:34:01;26.75;;;10.73;;
73452;SDS011;61687;56.232;43.854;2022-11-20T03:36:28;19.63;;;9.23;;
73452;SDS011;61687;56.232;43.854;2022-11-20T03:38:55;20.10;;;8.67;;
73452;SDS011;61687;56.232;43.854;2022-11-20T03:41:31;20.38;;;8.88;;
73452;SDS011;61687;56.232;43.854;2022-11-20T03:44:03;16.95;;;7.55;;
73452;SDS011;61687;56.232;43.854;2022-11-20T03:46:30;13.98;;;7.03;;
73452;SDS011;61687;56.232;43.854;2022-11-20T03:48:56;15.88;;;7.85;;
73452;SDS011;61687;56.232;43.854;2022-11-20T03:51:23;20.13;;;9.07;;
73452;SDS011;61687;56.232;43.854;2022-11-20T03:53:55;13.25;;;6.82;;
73452;SDS011;61687;56.232;43.854;2022-11-20T03:56:23;18.20;;;8.15;;
73452;SDS011;61687;56.232;43.854;2022-11-20T03:58:51;16.73;;;8.00;;
73452;SDS011;61687;56.232;43.854;2022-11-20T04:01:24;15.52;;;7.72;;
73452;SDS011;61687;56.232;43.854;2022-11-20T04:03:53;15.33;;;7.30;;
73452;SDS011;61687;56.232;43.854;2022-11-20T04:06:21;12.32;;;6.65;;
73452;SDS011;61687;56.232;43.854;2022-11-20T04:08:49;13.45;;;7.22;;
73452;SDS011;61687;56.232;43.854;2022-11-20T04:11:16;14.95;;;6.82;;
73452;SDS011;61687;56.232;43.854;2022-11-20T04:13:42;17.05;;;7.35;;
73452;SDS011;61687;56.232;43.854;2022-11-20T04:16:12;18.87;;;7.13;;
73452;SDS011;61687;56.232;43.854;2022-11-20T04:18:38;15.15;;;7.80;;
73452;SDS011;61687;56.232;43.854;2022-11-20T04:21:04;15.13;;;7.28;;
73452;SDS011;61687;56.232;43.854;2022-11-20T04:23:31;11.25;;;5.28;;
73452;SDS011;61687;56.232;43.854;2022-11-20T04:26:04;12.80;;;7.32;;
73452;SDS011;61687;56.232;43.854;2022-11-20T04:28:35;15.13;;;6.90;;
73452;SDS011;61687;56.232;43.854;2022-11-20T04:31:04;16.30;;;7.10;;
73452;SDS011;61687;56.232;43.854;2022-11-20T04:33:34;15.35;;;8.18;;
73452;SDS011;61687;56.232;43.854;2022-11-20T04:36:02;21.40;;;8.73;;
73452;SDS011;61687;56.232;43.854;2022-11-20T04:38:30;26.90;;;10.98;;
73452;SDS011;61687;56.232;43.854;2022-11-20T04:40:59;44.33;;;17.00;;
73452;SDS011;61687;56.232;43.854;2022-11-20T04:43:26;53.70;;;20.63;;
73452;SDS011;61687;56.232;43.854;2022-11-20T04:45:53;50.13;;;19.88;;
73452;SDS011;61687;56.232;43.854;2022-11-20T04:48:20;38.15;;;16.45;;
73452;SDS011;61687;56.232;43.854;2022-11-20T04:50:46;35.57;;;15.20;;
73452;SDS011;61687;56.232;43.854;2022-11-20T04:53:12;33.85;;;14.25;;
73452;SDS011;61687;56.232;43.854;2022-11-20T04:55:39;41.35;;;17.73;;
73452;SDS011;61687;56.232;43.854;2022-11-20T04:58:05;45.17;;;17.65;;
73452;SDS011;61687;56.232;43.854;2022-11-20T05:00:31;40.50;;;15.40;;
73452;SDS011;61687;56.232;43.854;2022-11-20T05:02:56;23.15;;;10.35;;
73452;SDS011;61687;56.232;43.854;2022-11-20T05:05:22;28.63;;;10.68;;
73452;SDS011;61687;56.232;43.854;2022-11-20T05:07:49;26.08;;;11.45;;
73452;SDS011;61687;56.232;43.854;2022-11-20T05:10:15;22.05;;;9.88;;
73452;SDS011;61687;56.232;43.854;2022-11-20T05:12:41;19.40;;;9.67;;
73452;SDS011;61687;56.232;43.854;2022-11-20T05:15:07;18.88;;;9.38;;
73452;SDS011;61687;56.232;43.854;2022-11-20T05:17:33;20.75;;;9.40;;
73452;SDS011;61687;56.232;43.854;2022-11-20T05:19:59;22.75;;;9.50;;
73452;SDS011;61687;56.232;43.854;2022-11-20T05:22:25;27.30;;;10.73;;
73452;SDS011;61687;56.232;43.854;2022-11-20T05:24:51;20.92;;;9.20;;
73452;SDS011;61687;56.232;43.854;2022-11-20T05:27:17;21.75;;;9.80;;
73452;SDS011;61687;56.232;43.854;2022-11-20T05:29:43;23.60;;;10.43;;
73452;SDS011;61687;56.232;43.854;2022-11-20T05:32:09;22.60;;;9.60;;
73452;SDS011;61687;56.232;43.854;2022-11-20T05:34:35;27.63;;;11.27;;
73452;SDS011;61687;56.232;43.854;2022-11-20T05:37:02;23.15;;;10.25;;
73452;SDS011;61687;56.232;43.854;2022-11-20T05:39:28;22.23;;;9.67;;
73452;SDS011;61687;56.232;43.854;2022-11-20T05:41:54;22.67;;;11.95;;
73452;SDS011;61687;56.232;43.854;2022-11-20T05:44:39;27.58;;;10.50;;
73452;SDS011;61687;56.232;43.854;2022-11-20T05:47:05;28.83;;;11.65;;
73452;SDS011;61687;56.232;43.854;2022-11-20T05:49:31;29.30;;;12.52;;
73452;SDS011;61687;56.232;43.854;2022-11-20T05:51:57;30.27;;;12.90;;
73452;SDS011;61687;56.232;43.854;2022-11-20T05:54:23;23.83;;;11.48;;
73452;SDS011;61687;56.232;43.854;2022-11-20T05:56:49;19.63;;;8.50;;
73452;SDS011;61687;56.232;43.854;2022-11-20T05:59:15;16.80;;;7.70;;
73452;SDS011;61687;56.232;43.854;2022-11-20T06:01:41;16.02;;;7.63;;
73452;SDS011;61687;56.232;43.854;2022-11-20T06:04:07;19.23;;;8.35;;
73452;SDS011;61687;56.232;43.854;2022-11-20T06:06:32;20.80;;;7.90;;
73452;SDS011;61687;56.232;43.854;2022-11-20T06:08:58;17.35;;;8.65;;
73452;SDS011;61687;56.232;43.854;2022-11-20T06:11:25;19.92;;;7.93;;
73452;SDS011;61687;56.232;43.854;2022-11-20T06:13:51;15.38;;;8.50;;
73452;SDS011;61687;56.232;43.854;2022-11-20T06:16:18;16.70;;;7.50;;
73452;SDS011;61687;56.232;43.854;2022-11-20T06:18:46;14.57;;;6.30;;
73452;SDS011;61687;56.232;43.854;2022-11-20T06:21:13;16.15;;;7.93;;
73452;SDS011;61687;56.232;43.854;2022-11-20T06:23:42;18.42;;;8.27;;
73452;SDS011;61687;56.232;43.854;2022-11-20T06:26:10;16.10;;;7.55;;
73452;SDS011;61687;56.232;43.854;2022-11-20T06:28:37;15.97;;;7.63;;
73452;SDS011;61687;56.232;43.854;2022-11-20T06:31:04;20.35;;;8.38;;
73452;SDS011;61687;56.232;43.854;2022-11-20T06:33:30;19.58;;;8.27;;
73452;SDS011;61687;56.232;43.854;2022-11-20T06:35:57;14.48;;;7.55;;
73452;SDS011;61687;56.232;43.854;2022-11-20T06:38:24;21.80;;;8.60;;
73452;SDS011;61687;56.232;43.854;2022-11-20T06:40:50;14.80;;;7.68;;
73452;SDS011;61687;56.232;43.854;2022-11-20T06:43:16;22.13;;;9.10;;
73452;SDS011;61687;56.232;43.854;2022-11-20T06:45:42;25.97;;;10.03;;
73452;SDS011;61687;56.232;43.854;2022-11-20T06:48:08;23.83;;;9.90;;
73452;SDS011;61687;56.232;43.854;2022-11-20T06:50:36;28.25;;;11.15;;
73452;SDS011;61687;56.232;43.854;2022-11-20T06:53:03;25.75;;;11.20;;
73452;SDS011;61687;56.232;43.854;2022-11-20T06:55:30;25.03;;;10.07;;
73452;SDS011;61687;56.232;43.854;2022-11-20T06:57:56;30.30;;;11.88;;
73452;SDS011;61687;56.232;43.854;2022-11-20T07:00:23;28.25;;;11.02;;
73452;SDS011;61687;56.232;43.854;2022-11-20T07:02:49;25.38;;;10.48;;
73452;SDS011;61687;56.232;43.854;2022-11-20T07:05:15;28.93;;;10.23;;
73452;SDS011;61687;56.232;43.854;2022-11-20T07:07:41;19.52;;;8.65;;
73452;SDS011;61687;56.232;43.854;2022-11-20T07:10:07;21.15;;;9.95;;
73452;SDS011;61687;56.232;43.854;2022-11-20T07:12:34;29.38;;;10.90;;
73452;SDS011;61687;56.232;43.854;2022-11-20T07:14:59;28.20;;;11.63;;
73452;SDS011;61687;56.232;43.854;2022-11-20T07:17:25;31.08;;;10.55;;
73452;SDS011;61687;56.232;43.854;2022-11-20T07:19:51;22.83;;;10.13;;
73452;SDS011;61687;56.232;43.854;2022-11-20T07:22:17;26.70;;;12.00;;
73452;SDS011;61687;56.232;43.854;2022-11-20T07:24:43;27.65;;;11.23;;
73452;SDS011;61687;56.232;43.854;2022-11-20T07:27:08;33.97;;;12.20;;
73452;SDS011;61687;56.232;43.854;2022-11-20T07:29:34;29.90;;;12.32;;
73452;SDS011;61687;56.232;43.854;2022-11-20T07:32:00;25.00;;;10.50;;
73452;SDS011;61687;56.232;43.854;2022-11-20T07:34:26;22.13;;;10.50;;
73452;SDS011;61687;56.232;43.854;2022-11-20T07:36:52;19.95;;;9.32;;
73452;SDS011;61687;56.232;43.854;2022-11-20T07:39:18;22.87;;;9.93;;
73452;SDS011;61687;56.232;43.854;2022-11-20T07:41:43;21.95;;;9.48;;
73452;SDS011;61687;56.232;43.854;2022-11-20T07:44:09;19.48;;;8.68;;
73452;SDS011;61687;56.232;43.854;2022-11-20T07:46:35;15.93;;;7.47;;
73452;SDS011;61687;56.232;43.854;2022-11-20T07:49:01;16.67;;;8.05;;
73452;SDS011;61687;56.232;43.854;2022-11-20T07:51:27;18.77;;;7.60;;
73452;SDS011;61687;56.232;43.854;2022-11-20T07:53:54;20.00;;;8.37;;
73452;SDS011;61687;56.232;43.854;2022-11-20T07:56:20;16.92;;;7.57;;
73452;SDS011;61687;56.232;43.854;2022-11-20T07:58:46;18.42;;;7.30;;
73452;SDS011;61687;56.232;43.854;2022-11-20T08:01:12;18.25;;;8.20;;
73452;SDS011;61687;56.232;43.854;2022-11-20T08:03:38;15.82;;;7.28;;
73452;SDS011;61687;56.232;43.854;2022-11-20T08:06:03;17.43;;;8.50;;
73452;SDS011;61687;56.232;43.854;2022-11-20T08:08:30;17.83;;;8.20;;
73452;SDS011;61687;56.232;43.854;2022-11-20T08:10:58;18.13;;;7.55;;
73452;SDS011;61687;56.232;43.854;2022-11-20T08:13:43;19.77;;;8.77;;
73452;SDS011;61687;56.232;43.854;2022-11-20T08:16:27;19.53;;;8.77;;
73452;SDS011;61687;56.232;43.854;2022-11-20T08:18:54;17.33;;;7.60;;
73452;SDS011;61687;56.232;43.854;2022-11-20T08:21:20;16.10;;;8.55;;
73452;SDS011;61687;56.232;43.854;2022-11-20T08:23:46;17.77;;;8.52;;
73452;SDS011;61687;56.232;43.854;2022-11-20T08:26:11;17.17;;;8.20;;
73452;SDS011;61687;56.232;43.854;2022-11-20T08:28:37;20.67;;;8.98;;
73452;SDS011;61687;56.232;43.854;2022-11-20T08:31:04;22.38;;;9.60;;
73452;SDS011;61687;56.232;43.854;2022-11-20T08:33:30;23.87;;;10.80;;
73452;SDS011;61687;56.232;43.854;2022-11-20T08:35:58;25.30;;;9.50;;
73452;SDS011;61687;56.232;43.854;2022-11-20T08:38:26;27.10;;;12.27;;
73452;SDS011;61687;56.232;43.854;2022-11-20T08:40:55;28.70;;;12.63;;
73452;SDS011;61687;56.232;43.854;2022-11-20T08:43:43;36.83;;;13.50;;
73452;SDS011;61687;56.232;43.854;2022-11-20T08:46:09;34.20;;;12.60;;
73452;SDS011;61687;56.232;43.854;2022-11-20T08:48:35;31.30;;;12.45;;
73452;SDS011;61687;56.232;43.854;2022-11-20T08:51:01;22.90;;;9.55;;
73452;SDS011;61687;56.232;43.854;2022-11-20T08:53:27;24.10;;;9.85;;
73452;SDS011;61687;56.232;43.854;2022-11-20T08:55:53;21.15;;;10.32;;
73452;SDS011;61687;56.232;43.854;2022-11-20T08:58:19;18.70;;;8.50;;
73452;SDS011;61687;56.232;43.854;2022-11-20T09:00:45;22.08;;;9.02;;
73452;SDS011;61687;56.232;43.854;2022-11-20T09:03:11;20.97;;;8.87;;
73452;SDS011;61687;56.232;43.854;2022-11-20T09:05:38;32.40;;;9.55;;
73452;SDS011;61687;56.232;43.854;2022-11-20T09:08:04;19.35;;;9.38;;
73452;SDS011;61687;56.232;43.854;2022-11-20T09:10:31;23.35;;;9.52;;
73452;SDS011;61687;56.232;43.854;2022-11-20T09:12:57;24.27;;;9.67;;
73452;SDS011;61687;56.232;43.854;2022-11-20T09:15:24;23.98;;;9.27;;
73452;SDS011;61687;56.232;43.854;2022-11-20T09:18:00;19.25;;;8.63;;
73452;SDS011;61687;56.232;43.854;2022-11-20T09:20:28;21.52;;;10.60;;
73452;SDS011;61687;56.232;43.854;2022-11-20T09:22:55;27.73;;;10.85;;
73452;SDS011;61687;56.232;43.854;2022-11-20T09:25:22;19.10;;;8.80;;
73452;SDS011;61687;56.232;43.854;2022-11-20T09:27:54;20.50;;;9.90;;
73452;SDS011;61687;56.232;43.854;2022-11-20T09:30:24;20.65;;;9.15;;
73452;SDS011;61687;56.232;43.854;2022-11-20T09:32:50;22.85;;;10.63;;
73452;SDS011;61687;56.232;43.854;2022-11-20T09:35:16;27.08;;;11.40;;
73452;SDS011;61687;56.232;43.854;2022-11-20T09:37:43;27.87;;;12.27;;
73452;SDS011;61687;56.232;43.854;2022-11-20T09:40:17;24.63;;;11.85;;
73452;SDS011;61687;56.232;43.854;2022-11-20T09:56:00;24.45;;;10.52;;
73452;SDS011;61687;56.232;43.854;2022-11-20T09:58:38;20.80;;;9.73;;
73452;SDS011;61687;56.232;43.854;2022-11-20T10:01:18;23.65;;;10.20;;
73452;SDS011;61687;56.232;43.854;2022-11-20T10:06:30;22.23;;;10.00;;
73452;SDS011;61687;56.232;43.854;2022-11-20T10:14:31;21.42;;;10.15;;
73452;SDS011;61687;56.232;43.854;2022-11-20T10:20:27;25.83;;;10.90;;
73452;SDS011;61687;56.232;43.854;2022-11-20T10:25:39;23.58;;;9.40;;
73452;SDS011;61687;56.232;43.854;2022-11-20T10:30:51;24.45;;;10.90;;
73452;SDS011;61687;56.232;43.854;2022-11-20T10:33:25;27.75;;;11.82;;
73452;SDS011;61687;56.232;43.854;2022-11-20T10:38:33;23.50;;;11.63;;
73452;SDS011;61687;56.232;43.854;2022-11-20T10:41:03;25.70;;;12.17;;
73452;SDS011;61687;56.232;43.854;2022-11-20T10:44:32;24.83;;;11.02;;
73452;SDS011;61687;56.232;43.854;2022-11-20T10:47:00;26.98;;;11.07;;
73452;SDS011;61687;56.232;43.854;2022-11-20T10:49:27;21.98;;;10.38;;
73452;SDS011;61687;56.232;43.854;2022-11-20T10:54:26;29.97;;;12.10;;
73452;SDS011;61687;56.232;43.854;2022-11-20T11:00:25;39.95;;;14.27;;
73452;SDS011;61687;56.232;43.854;2022-11-20T11:02:54;29.38;;;12.88;;
73452;SDS011;61687;56.232;43.854;2022-11-20T11:08:13;26.63;;;10.73;;
73452;SDS011;61687;56.232;43.854;2022-11-20T11:13:07;26.70;;;9.80;;
73452;SDS011;61687;56.232;43.854;2022-11-20T11:15:44;18.23;;;9.60;;
73452;SDS011;61687;56.232;43.854;2022-11-20T11:18:10;23.50;;;10.05;;
73452;SDS011;61687;56.232;43.854;2022-11-20T11:20:36;21.02;;;9.82;;
73452;SDS011;61687;56.232;43.854;2022-11-20T11:23:03;26.25;;;10.07;;
73452;SDS011;61687;56.232;43.854;2022-11-20T11:28:32;28.15;;;11.38;;
73452;SDS011;61687;56.232;43.854;2022-11-20T11:30:53;28.25;;;11.68;;
73452;SDS011;61687;56.232;43.854;2022-11-20T11:33:23;19.38;;;8.85;;
73452;SDS011;61687;56.232;43.854;2022-11-20T11:35:55;17.85;;;9.48;;
73452;SDS011;61687;56.232;43.854;2022-11-20T11:38:30;17.90;;;7.87;;
73452;SDS011;61687;56.232;43.854;2022-11-20T11:41:41;22.08;;;9.30;;
73452;SDS011;61687;56.232;43.854;2022-11-20T11:44:04;18.85;;;8.93;;
73452;SDS011;61687;56.232;43.854;2022-11-20T11:47:04;18.55;;;8.10;;
73452;SDS011;61687;56.232;43.854;2022-11-20T11:49:35;16.90;;;7.32;;
73452;SDS011;61687;56.232;43.854;2022-11-20T11:52:03;20.53;;;8.77;;
73452;SDS011;61687;56.232;43.854;2022-11-20T11:54:57;22.88;;;9.95;;
73452;SDS011;61687;56.232;43.854;2022-11-20T12:00:09;19.80;;;10.07;;
73452;SDS011;61687;56.232;43.854;2022-11-20T12:02:48;20.03;;;8.20;;
73452;SDS011;61687;56.232;43.854;2022-11-20T12:05:27;19.67;;;10.15;;
73452;SDS011;61687;56.232;43.854;2022-11-20T12:08:02;21.58;;;9.30;;
73452;SDS011;61687;56.232;43.854;2022-11-20T12:10:40;20.33;;;8.73;;
73452;SDS011;61687;56.232;43.854;2022-11-20T12:15:46;23.33;;;9.37;;
73452;SDS011;61687;56.232;43.854;2022-11-20T12:18:15;21.00;;;9.95;;
73452;SDS011;61687;56.232;43.854;2022-11-20T12:50:12;21.48;;;9.10;;
73452;SDS011;61687;56.232;43.854;2022-11-20T12:58:17;27.43;;;10.50;;
73452;SDS011;61687;56.232;43.854;2022-11-20T13:00:58;26.00;;;10.05;;
73452;SDS011;61687;56.232;43.854;2022-11-20T13:06:18;29.60;;;11.02;;
73452;SDS011;61687;56.232;43.854;2022-11-20T13:08:49;24.10;;;10.80;;
73452;SDS011;61687;56.232;43.854;2022-11-20T13:17:11;21.95;;;10.20;;
73452;SDS011;61687;56.232;43.854;2022-11-20T13:19:46;27.42;;;11.02;;
73452;SDS011;61687;56.232;43.854;2022-11-20T13:22:52;21.83;;;9.48;;
73452;SDS011;61687;56.232;43.854;2022-11-20T13:25:22;25.23;;;10.90;;
73452;SDS011;61687;56.232;43.854;2022-11-20T13:27:51;27.35;;;10.60;;
73452;SDS011;61687;56.232;43.854;2022-11-20T13:30:21;25.05;;;11.07;;
73452;SDS011;61687;56.232;43.854;2022-11-20T13:32:55;25.15;;;10.30;;
73452;SDS011;61687;56.232;43.854;2022-11-20T13:35:27;29.58;;;11.15;;
73452;SDS011;61687;56.232;43.854;2022-11-20T13:40:27;24.58;;;10.68;;
73452;SDS011;61687;56.232;43.854;2022-11-20T13:45:23;25.13;;;10.63;;
73452;SDS011;61687;56.232;43.854;2022-11-20T13:47:54;24.50;;;10.07;;
73452;SDS011;61687;56.232;43.854;2022-11-20T13:50:37;25.92;;;10.70;;
73452;SDS011;61687;56.232;43.854;2022-11-20T14:01:36;20.33;;;9.50;;
73452;SDS011;61687;56.232;43.854;2022-11-20T14:04:08;26.48;;;10.85;;
73452;SDS011;61687;56.232;43.854;2022-11-20T14:06:42;26.90;;;11.05;;
73452;SDS011;61687;56.232;43.854;2022-11-20T14:09:29;23.95;;;10.70;;
73452;SDS011;61687;56.232;43.854;2022-11-20T14:11:57;22.65;;;9.48;;
73452;SDS011;61687;56.232;43.854;2022-11-20T14:14:24;22.67;;;10.03;;
73452;SDS011;61687;56.232;43.854;2022-11-20T14:16:51;29.05;;;12.07;;
73452;SDS011;61687;56.232;43.854;2022-11-20T14:21:54;25.95;;;11.10;;
73452;SDS011;61687;56.232;43.854;2022-11-20T14:24:32;25.27;;;11.52;;
73452;SDS011;61687;56.232;43.854;2022-11-20T14:26:58;27.77;;;11.27;;
73452;SDS011;61687;56.232;43.854;2022-11-20T14:29:34;27.00;;;11.05;;
73452;SDS011;61687;56.232;43.854;2022-11-20T14:32:02;25.75;;;10.35;;
73452;SDS011;61687;56.232;43.854;2022-11-20T14:34:30;32.53;;;11.57;;
73452;SDS011;61687;56.232;43.854;2022-11-20T14:36:59;26.47;;;11.87;;
73452;SDS011;61687;56.232;43.854;2022-11-20T14:39:31;27.35;;;12.82;;
73452;SDS011;61687;56.232;43.854;2022-11-20T14:41:59;25.67;;;11.82;;
73452;SDS011;61687;56.232;43.854;2022-11-20T14:44:34;26.85;;;12.43;;
73452;SDS011;61687;56.232;43.854;2022-11-20T14:47:00;31.07;;;11.53;;
73452;SDS011;61687;56.232;43.854;2022-11-20T14:49:29;28.88;;;12.07;;
73452;SDS011;61687;56.232;43.854;2022-11-20T14:52:01;28.63;;;12.18;;
73452;SDS011;61687;56.232;43.854;2022-11-20T14:54:50;28.98;;;10.95;;
73452;SDS011;61687;56.232;43.854;2022-11-20T14:57:30;26.25;;;11.70;;
73452;SDS011;61687;56.232;43.854;2022-11-20T15:00:18;26.13;;;11.13;;
73452;SDS011;61687;56.232;43.854;2022-11-20T15:02:46;26.80;;;10.90;;
73452;SDS011;61687;56.232;43.854;2022-11-20T15:05:14;25.30;;;10.50;;
73452;SDS011;61687;56.232;43.854;2022-11-20T15:07:42;24.83;;;11.60;;
73452;SDS011;61687;56.232;43.854;2022-11-20T15:10:27;29.77;;;12.25;;
73452;SDS011;61687;56.232;43.854;2022-11-20T15:12:54;25.57;;;11.40;;
73452;SDS011;61687;56.232;43.854;2022-11-20T15:18:14;25.48;;;11.23;;
73452;SDS011;61687;56.232;43.854;2022-11-20T15:20:43;23.33;;;10.63;;
73452;SDS011;61687;56.232;43.854;2022-11-20T15:23:13;24.50;;;10.80;;
73452;SDS011;61687;56.232;43.854;2022-11-20T15:25:41;26.63;;;11.23;;
73452;SDS011;61687;56.232;43.854;2022-11-20T15:28:16;24.98;;;11.52;;
73452;SDS011;61687;56.232;43.854;2022-11-20T15:31:02;26.83;;;10.98;;
73452;SDS011;61687;56.232;43.854;2022-11-20T15:33:30;29.52;;;11.23;;
73452;SDS011;61687;56.232;43.854;2022-11-20T15:35:56;24.98;;;10.38;;
73452;SDS011;61687;56.232;43.854;2022-11-20T15:38:22;26.27;;;9.80;;
73452;SDS011;61687;56.232;43.854;2022-11-20T15:40:48;25.05;;;11.10;;
73452;SDS011;61687;56.232;43.854;2022-11-20T15:43:14;23.98;;;10.25;;
73452;SDS011;61687;56.232;43.854;2022-11-20T15:45:47;22.27;;;9.80;;
73452;SDS011;61687;56.232;43.854;2022-11-20T15:48:19;19.90;;;9.88;;
73452;SDS011;61687;56.232;43.854;2022-11-20T15:53:34;19.45;;;9.60;;
73452;SDS011;61687;56.232;43.854;2022-11-20T15:56:00;22.00;;;9.75;;
73452;SDS011;61687;56.232;43.854;2022-11-20T15:58:27;20.17;;;9.60;;
73452;SDS011;61687;56.232;43.854;2022-11-20T16:00:53;21.17;;;9.93;;
73452;SDS011;61687;56.232;43.854;2022-11-20T16:03:18;20.90;;;9.48;;
73452;SDS011;61687;56.232;43.854;2022-11-20T16:05:45;21.52;;;9.48;;
73452;SDS011;61687;56.232;43.854;2022-11-20T16:08:11;22.93;;;10.13;;
73452;SDS011;61687;56.232;43.854;2022-11-20T16:10:37;23.75;;;10.02;;
73452;SDS011;61687;56.232;43.854;2022-11-20T16:13:03;20.50;;;9.75;;
73452;SDS011;61687;56.232;43.854;2022-11-20T16:15:51;25.77;;;9.88;;
73452;SDS011;61687;56.232;43.854;2022-11-20T16:18:22;21.33;;;9.97;;
73452;SDS011;61687;56.232;43.854;2022-11-20T16:20:49;24.05;;;9.65;;
73452;SDS011;61687;56.232;43.854;2022-11-20T16:23:17;22.00;;;9.48;;
73452;SDS011;61687;56.232;43.854;2022-11-20T16:25:43;22.17;;;10.27;;
73452;SDS011;61687;56.232;43.854;2022-11-20T16:28:09;23.38;;;9.90;;